Time;durP1;ratioP1;P1;durP2;ratioP2;P2;SDS_P1;SDS_P2;PMS_P1;PMS_P2;Temp;Humidity;BMP_temperature;BMP_pressure;BME280_temperature;BME280_humidity;BME280_pressure;Samples;Min_cycle;Max_cycle;Signal;HPM_P1;HPM_P2
2023/07/09 00:00:37;;;;;;;2.78;2.53;;;;;;;;;;4975677;28;20218;-68
2023/07/09 00:03:05;;;;;;;2.45;2.35;;;;;;;;;;4974999;28;20595;-68
2023/07/09 00:05:32;;;;;;;2.45;2.25;;;;;;;;;;4975351;28;20207;-68
2023/07/09 00:08:01;;;;;;;2.45;2.35;;;;;;;;;;4975177;28;20211;-68
2023/07/09 00:10:28;;;;;;;2.50;2.40;;;;;;;;;;4975193;28;20235;-68
2023/07/09 00:12:55;;;;;;;2.80;2.70;;;;;;;;;;4974986;28;20235;-68
2023/07/09 05:11:01;;;;;;;3.03;2.80;;;;;;;;;;4958084;28;20241;-66
2023/07/09 05:13:28;;;;;;;3.38;3.20;;;;;;;;;;4958932;29;20225;-67
2023/07/09 05:15:56;;;;;;;3.05;2.85;;;;;;;;;;4959317;29;20211;-67
2023/07/09 05:19:10;;;;;;;3.10;2.72;;;;;;;;;;4958625;29;20544;-67
2023/07/09 05:24:54;;;;;;;4.10;3.70;;;;;;;;;;4957778;29;20216;-66
2023/07/09 05:27:22;;;;;;;5.95;3.40;;;;;;;;;;4959036;29;20199;-66
2023/07/09 05:29:49;;;;;;;3.40;3.20;;;;;;;;;;4958601;29;20212;-66
2023/07/09 05:32:16;;;;;;;5.20;3.58;;;;;;;;;;4958389;28;20610;-66
2023/07/09 05:34:43;;;;;;;3.38;3.08;;;;;;;;;;4959065;29;20196;-66
2023/07/09 05:37:10;;;;;;;2.97;2.78;;;;;;;;;;4958946;29;20207;-66
2023/07/09 05:39:37;;;;;;;3.40;3.20;;;;;;;;;;4958377;29;20691;-66
2023/07/09 05:42:05;;;;;;;3.63;3.28;;;;;;;;;;4958510;29;20207;-66
2023/07/09 05:44:33;;;;;;;3.40;3.10;;;;;;;;;;4958162;29;20691;-66
2023/07/09 05:47:00;;;;;;;2.83;2.63;;;;;;;;;;4958478;29;20210;-66
2023/07/09 05:50:12;;;;;;;3.30;3.00;;;;;;;;;;4958094;29;20207;-66
2023/07/09 05:53:09;;;;;;;3.35;3.13;;;;;;;;;;4958377;28;20223;-66
2023/07/09 05:55:39;;;;;;;3.65;2.95;;;;;;;;;;4958303;29;20188;-66
2023/07/09 05:58:10;;;;;;;2.65;2.55;;;;;;;;;;4958380;29;20211;-66
2023/07/09 06:00:46;;;;;;;3.58;3.38;;;;;;;;;;4958398;29;20199;-66
2023/07/09 06:03:15;;;;;;;3.00;2.72;;;;;;;;;;4958337;28;20227;-66
2023/07/09 06:05:45;;;;;;;3.20;3.00;;;;;;;;;;4958390;28;20219;-66
2023/07/09 06:08:14;;;;;;;3.17;2.95;;;;;;;;;;4958187;29;20200;-65
2023/07/09 06:10:41;;;;;;;3.20;2.90;;;;;;;;;;4958218;29;20199;-65
2023/07/09 06:13:09;;;;;;;3.40;3.20;;;;;;;;;;4957990;28;20274;-65
2023/07/09 06:15:36;;;;;;;2.85;2.75;;;;;;;;;;4957702;29;20571;-65
2023/07/09 06:18:04;;;;;;;3.20;3.00;;;;;;;;;;4957556;28;20671;-65
2023/07/09 06:20:31;;;;;;;4.28;3.03;;;;;;;;;;4957783;29;20204;-65
2023/07/09 06:22:58;;;;;;;2.72;2.60;;;;;;;;;;4957765;28;20763;-65
2023/07/09 06:25:25;;;;;;;3.35;3.03;;;;;;;;;;4957828;28;20288;-65
2023/07/09 06:27:52;;;;;;;2.75;2.55;;;;;;;;;;4957867;28;20249;-66
2023/07/09 06:30:19;;;;;;;2.83;2.63;;;;;;;;;;4957975;29;20590;-66
2023/07/09 06:32:46;;;;;;;2.78;2.58;;;;;;;;;;4957521;28;20228;-66
2023/07/09 06:35:15;;;;;;;2.97;2.72;;;;;;;;;;4957680;29;20203;-66
2023/07/09 06:37:42;;;;;;;3.10;2.78;;;;;;;;;;4957614;29;20200;-66
2023/07/09 06:40:09;;;;;;;3.80;3.00;;;;;;;;;;4958873;29;20204;-66
2023/07/09 06:42:37;;;;;;;2.95;2.75;;;;;;;;;;4960508;28;20287;-67
2023/07/09 06:45:07;;;;;;;2.70;2.50;;;;;;;;;;4957642;28;20211;-67
2023/07/09 06:47:34;;;;;;;3.00;2.72;;;;;;;;;;4958220;28;20673;-67
2023/07/09 06:50:01;;;;;;;2.70;2.50;;;;;;;;;;4957504;29;20203;-69
2023/07/09 06:52:29;;;;;;;3.00;2.80;;;;;;;;;;4957387;28;20231;-69
2023/07/09 06:54:57;;;;;;;2.60;2.50;;;;;;;;;;4957293;29;20206;-69
2023/07/09 06:57:24;;;;;;;2.53;2.42;;;;;;;;;;4957267;29;20238;-69
2023/07/09 06:59:51;;;;;;;3.28;3.08;;;;;;;;;;4957208;29;20214;-69
2023/07/09 07:02:18;;;;;;;2.67;2.47;;;;;;;;;;4957043;28;20214;-69
2023/07/09 07:04:45;;;;;;;2.90;2.80;;;;;;;;;;4957117;29;20210;-71
2023/07/09 07:07:12;;;;;;;2.72;2.63;;;;;;;;;;4956802;29;20262;-71
2023/07/09 07:09:40;;;;;;;2.72;2.53;;;;;;;;;;4957015;29;20200;-71
2023/07/09 07:12:08;;;;;;;2.67;2.58;;;;;;;;;;4956907;28;20212;-71
2023/07/09 07:14:35;;;;;;;2.80;2.70;;;;;;;;;;4957001;29;20211;-71
2023/07/09 07:17:02;;;;;;;2.92;2.72;;;;;;;;;;4957088;29;20226;-71
2023/07/09 07:19:29;;;;;;;2.50;2.40;;;;;;;;;;4956988;29;20203;-71
2023/07/09 07:21:56;;;;;;;2.95;2.75;;;;;;;;;;4956791;29;20211;-71
2023/07/09 07:24:23;;;;;;;2.80;2.60;;;;;;;;;;4956525;28;20235;-71
2023/07/09 07:26:51;;;;;;;2.97;2.85;;;;;;;;;;4956597;29;20322;-71
2023/07/09 07:29:19;;;;;;;2.95;2.75;;;;;;;;;;4956744;29;20203;-71
2023/07/09 07:31:46;;;;;;;3.10;2.20;;;;;;;;;;4955783;28;20207;-71
2023/07/09 07:34:13;;;;;;;2.80;2.60;;;;;;;;;;4956463;28;20628;-71
2023/07/09 07:36:40;;;;;;;2.92;2.60;;;;;;;;;;4956574;29;20202;-71
2023/07/09 07:39:07;;;;;;;2.72;2.55;;;;;;;;;;4956649;29;20262;-72
2023/07/09 07:41:34;;;;;;;2.70;2.50;;;;;;;;;;4956375;29;20203;-72
2023/07/09 07:44:02;;;;;;;2.60;2.50;;;;;;;;;;4956325;28;20226;-72
2023/07/09 07:46:32;;;;;;;2.67;2.47;;;;;;;;;;4956433;29;20226;-71
2023/07/09 07:48:59;;;;;;;2.70;2.50;;;;;;;;;;4956308;28;20261;-71
2023/07/09 07:51:27;;;;;;;2.80;2.70;;;;;;;;;;4956249;29;20199;-71
2023/07/09 07:53:54;;;;;;;3.10;2.90;;;;;;;;;;4956125;28;20227;-71
2023/07/09 07:56:22;;;;;;;3.47;2.30;;;;;;;;;;4956069;29;20239;-70
2023/07/09 07:58:49;;;;;;;2.58;2.38;;;;;;;;;;4956049;29;20204;-71
2023/07/09 08:01:17;;;;;;;2.70;2.50;;;;;;;;;;4956033;29;20208;-72
2023/07/09 08:03:44;;;;;;;2.70;2.50;;;;;;;;;;4955577;28;20711;-71
2023/07/09 08:06:11;;;;;;;2.80;2.60;;;;;;;;;;4955585;29;20641;-70
2023/07/09 08:08:38;;;;;;;2.72;2.63;;;;;;;;;;4955922;28;20235;-69
2023/07/09 08:11:07;;;;;;;3.00;2.80;;;;;;;;;;4955845;29;20258;-69
2023/07/09 08:13:34;;;;;;;2.90;2.75;;;;;;;;;;4955818;28;20290;-69
2023/07/09 08:16:01;;;;;;;2.65;2.50;;;;;;;;;;4955789;28;20210;-69
2023/07/09 08:18:30;;;;;;;2.72;2.60;;;;;;;;;;4955785;29;20207;-69
2023/07/09 08:20:57;;;;;;;2.35;2.20;;;;;;;;;;4955483;29;20203;-68
2023/07/09 08:23:24;;;;;;;3.00;2.80;;;;;;;;;;4955430;28;20235;-70
2023/07/09 08:25:54;;;;;;;3.10;2.83;;;;;;;;;;4955813;28;20207;-71
2023/07/09 08:28:21;;;;;;;2.33;2.22;;;;;;;;;;4955377;29;20721;-71
2023/07/09 08:30:48;;;;;;;1.98;1.98;;;;;;;;;;4955698;29;20207;-71
2023/07/09 08:33:15;;;;;;;2.53;2.42;;;;;;;;;;4955450;28;20230;-70
2023/07/09 08:35:45;;;;;;;2.20;2.10;;;;;;;;;;4955621;29;20250;-70
2023/07/09 08:38:12;;;;;;;2.42;2.33;;;;;;;;;;4955742;29;20208;-70
2023/07/09 08:40:41;;;;;;;2.33;2.22;;;;;;;;;;4955469;29;20207;-70
2023/07/09 08:43:13;;;;;;;2.20;2.10;;;;;;;;;;4955127;28;20317;-70
2023/07/09 08:45:47;;;;;;;2.65;2.45;;;;;;;;;;4955424;29;20250;-70
2023/07/09 08:48:16;;;;;;;2.42;2.33;;;;;;;;;;4955357;29;20214;-70
2023/07/09 08:50:48;;;;;;;2.80;2.70;;;;;;;;;;4955482;29;20203;-71
2023/07/09 08:53:18;;;;;;;2.85;2.65;;;;;;;;;;4955963;28;20224;-70
2023/07/09 08:55:45;;;;;;;2.45;2.35;;;;;;;;;;4956243;29;20210;-70
2023/07/09 08:58:23;;;;;;;2.33;2.22;;;;;;;;;;4956177;29;20675;-69
2023/07/09 09:00:54;;;;;;;2.80;2.70;;;;;;;;;;4956762;29;20595;-69
2023/07/09 09:03:28;;;;;;;2.50;2.40;;;;;;;;;;4956555;28;20229;-68
2023/07/09 09:05:57;;;;;;;2.30;2.20;;;;;;;;;;4964631;29;20627;-69
2023/07/09 09:08:31;;;;;;;2.50;2.30;;;;;;;;;;4961524;29;20695;-69
2023/07/09 09:11:02;;;;;;;2.60;2.40;;;;;;;;;;4956972;29;20202;-69
2023/07/09 09:13:31;;;;;;;2.40;2.30;;;;;;;;;;4955955;28;20231;-69
2023/07/09 09:16:01;;;;;;;3.38;2.30;;;;;;;;;;4955531;28;20207;-70
2023/07/09 09:18:29;;;;;;;3.05;2.60;;;;;;;;;;4955719;29;20279;-69
2023/07/09 09:20:59;;;;;;;2.40;2.30;;;;;;;;;;4955564;29;20675;-69
2023/07/09 09:23:30;;;;;;;2.75;2.53;;;;;;;;;;4955243;28;20239;-69
2023/07/09 09:25:58;;;;;;;2.83;2.72;;;;;;;;;;4954941;29;20635;-69
2023/07/09 09:28:26;;;;;;;2.30;2.20;;;;;;;;;;4955112;29;20268;-69
2023/07/09 09:30:53;;;;;;;2.50;2.40;;;;;;;;;;4955050;29;20567;-69
2023/07/09 09:33:20;;;;;;;2.40;2.30;;;;;;;;;;4954830;28;20231;-70
2023/07/09 09:35:48;;;;;;;2.35;2.22;;;;;;;;;;4955195;29;20206;-70
2023/07/09 09:38:19;;;;;;;2.53;2.42;;;;;;;;;;4955532;29;20706;-69
2023/07/09 09:40:46;;;;;;;2.55;2.35;;;;;;;;;;4956105;29;20184;-69
2023/07/09 09:43:14;;;;;;;2.78;2.45;;;;;;;;;;4954834;28;20568;-70
2023/07/09 09:45:42;;;;;;;2.80;2.53;;;;;;;;;;4954998;29;20203;-70
2023/07/09 09:48:14;;;;;;;2.30;2.20;;;;;;;;;;4955147;29;20263;-71
2023/07/09 09:50:42;;;;;;;2.10;2.05;;;;;;;;;;4954668;29;20667;-71
2023/07/09 09:53:10;;;;;;;2.17;2.08;;;;;;;;;;4954978;28;20231;-71
2023/07/09 09:55:40;;;;;;;2.13;2.03;;;;;;;;;;4958708;29;20207;-71
2023/07/09 09:58:13;;;;;;;2.00;2.00;;;;;;;;;;4958283;29;20196;-69
2023/07/09 10:00:40;;;;;;;1.90;1.80;;;;;;;;;;4958054;29;20664;-69
2023/07/09 10:03:07;;;;;;;1.95;1.92;;;;;;;;;;4958276;28;20227;-70
2023/07/09 10:05:36;;;;;;;2.30;2.20;;;;;;;;;;4958124;29;20199;-69
2023/07/09 10:08:07;;;;;;;1.60;1.60;;;;;;;;;;4957910;29;20230;-69
2023/07/09 10:10:35;;;;;;;2.15;2.05;;;;;;;;;;4958124;29;20222;-69
2023/07/09 10:13:07;;;;;;;1.80;1.75;;;;;;;;;;4957894;28;20223;-69
2023/07/09 10:15:39;;;;;;;1.60;1.60;;;;;;;;;;4957992;29;20598;-69
2023/07/09 10:18:12;;;;;;;1.80;1.80;;;;;;;;;;4957620;29;20639;-70
2023/07/09 10:20:42;;;;;;;2.33;2.22;;;;;;;;;;4957850;29;20210;-70
2023/07/09 10:23:17;;;;;;;2.22;1.95;;;;;;;;;;4957653;28;20235;-70
2023/07/09 11:26:34;;;;;;;2.03;1.92;;;;;;;;;;5301786;23;20864;-70
2023/07/09 11:29:14;;;;;;;1.85;1.70;;;;;;;;;;4975886;28;20231;-70
2023/07/09 11:31:44;;;;;;;1.67;1.67;;;;;;;;;;4975824;28;20191;-70
2023/07/09 11:34:17;;;;;;;1.90;1.80;;;;;;;;;;4976036;28;20214;-70
2023/07/09 11:36:48;;;;;;;2.17;2.03;;;;;;;;;;4975796;28;20258;-70
2023/07/09 11:39:20;;;;;;;2.40;2.20;;;;;;;;;;4975632;28;20213;-70
2023/07/09 11:41:48;;;;;;;1.92;1.83;;;;;;;;;;4975953;28;20273;-70
2023/07/09 11:44:17;;;;;;;1.80;1.70;;;;;;;;;;5015757;23;20237;-71
2023/07/09 11:46:50;;;;;;;1.85;1.75;;;;;;;;;;4997938;28;20526;-71
2023/07/09 11:49:20;;;;;;;2.60;2.40;;;;;;;;;;4985516;28;20187;-72
2023/07/09 11:51:49;;;;;;;2.00;1.90;;;;;;;;;;4976770;28;20207;-71
2023/07/09 11:54:16;;;;;;;2.20;2.08;;;;;;;;;;4976291;28;20372;-71
2023/07/09 11:56:43;;;;;;;1.90;1.90;;;;;;;;;;4976035;28;20206;-71
2023/07/09 11:59:12;;;;;;;2.05;1.95;;;;;;;;;;4975655;28;20226;-71
2023/07/09 12:01:43;;;;;;;1.90;1.88;;;;;;;;;;4976123;28;20219;-70
2023/07/09 12:04:13;;;;;;;1.85;1.75;;;;;;;;;;4975389;28;20728;-70
2023/07/09 12:06:41;;;;;;;2.00;1.90;;;;;;;;;;4975766;28;20206;-71
2023/07/09 12:09:10;;;;;;;1.90;1.80;;;;;;;;;;4975475;28;20230;-70
2023/07/09 12:11:37;;;;;;;2.65;1.50;;;;;;;;;;4975489;28;20211;-71
2023/07/09 12:14:05;;;;;;;1.48;1.48;;;;;;;;;;4977666;28;20706;-70
2023/07/09 12:16:35;;;;;;;2.28;2.17;;;;;;;;;;4979492;28;20282;-71
2023/07/09 12:19:03;;;;;;;1.83;1.73;;;;;;;;;;4978108;28;20195;-72
2023/07/09 12:21:32;;;;;;;1.80;1.70;;;;;;;;;;4980386;28;20285;-70
2023/07/09 12:23:59;;;;;;;2.08;1.98;;;;;;;;;;4979958;28;20226;-71
2023/07/09 12:26:27;;;;;;;2.22;2.13;;;;;;;;;;4979158;28;20543;-70
2023/07/09 12:28:55;;;;;;;2.00;1.90;;;;;;;;;;4979265;28;20227;-70
2023/07/09 12:31:27;;;;;;;2.80;2.28;;;;;;;;;;4979688;28;20207;-72
2023/07/09 12:33:57;;;;;;;2.08;1.80;;;;;;;;;;4978649;28;20246;-71
2023/07/09 12:36:25;;;;;;;3.65;2.50;;;;;;;;;;4978349;28;20191;-71
2023/07/09 12:38:54;;;;;;;2.53;2.30;;;;;;;;;;4977945;28;20183;-71
2023/07/09 12:41:22;;;;;;;3.75;2.13;;;;;;;;;;4978530;28;20287;-71
2023/07/09 12:43:51;;;;;;;3.28;1.83;;;;;;;;;;4978703;28;20257;-71
2023/07/09 12:46:18;;;;;;;3.53;2.15;;;;;;;;;;4978744;28;20211;-71
2023/07/09 12:48:47;;;;;;;1.90;1.80;;;;;;;;;;4978263;28;20219;-70
2023/07/09 12:51:24;;;;;;;2.53;1.88;;;;;;;;;;4979969;28;20261;-70
2023/07/09 12:54:01;;;;;;;1.77;1.67;;;;;;;;;;4978943;28;20226;-70
2023/07/09 12:56:29;;;;;;;1.70;1.60;;;;;;;;;;4978455;28;20202;-70
2023/07/09 12:58:58;;;;;;;2.00;1.90;;;;;;;;;;4977710;28;20209;-70
2023/07/09 13:01:26;;;;;;;2.10;2.00;;;;;;;;;;4978121;28;20209;-70
2023/07/09 13:03:55;;;;;;;2.22;2.00;;;;;;;;;;4978613;28;20252;-70
2023/07/09 13:06:37;;;;;;;2.33;1.70;;;;;;;;;;4978891;28;20241;-70
2023/07/09 13:09:11;;;;;;;1.92;1.83;;;;;;;;;;4979169;28;20207;-70
2023/07/09 13:11:38;;;;;;;2.05;1.95;;;;;;;;;;4978792;28;20187;-70
2023/07/09 13:14:07;;;;;;;2.38;1.77;;;;;;;;;;4977851;28;20223;-70
2023/07/09 13:16:39;;;;;;;2.05;1.90;;;;;;;;;;4977877;28;20203;-70
2023/07/09 13:19:07;;;;;;;1.80;1.70;;;;;;;;;;4977907;28;20179;-70
2023/07/09 13:21:37;;;;;;;2.15;2.05;;;;;;;;;;4978213;28;20258;-71
2023/07/09 13:24:06;;;;;;;2.10;2.00;;;;;;;;;;4976197;28;20254;-71
2023/07/09 13:26:33;;;;;;;3.03;1.70;;;;;;;;;;4974648;28;20210;-71
2023/07/09 13:29:01;;;;;;;2.97;2.05;;;;;;;;;;4977868;28;20223;-70
2023/07/09 13:31:28;;;;;;;1.65;1.63;;;;;;;;;;4978455;28;20206;-70
2023/07/09 13:33:58;;;;;;;1.73;1.63;;;;;;;;;;4978812;28;20238;-70
2023/07/09 13:36:25;;;;;;;2.13;1.92;;;;;;;;;;4978266;28;20207;-70
2023/07/09 13:38:54;;;;;;;1.80;1.80;;;;;;;;;;4978288;28;20206;-70
2023/07/09 13:41:22;;;;;;;1.80;1.75;;;;;;;;;;4977713;28;20207;-70
2023/07/09 13:43:50;;;;;;;1.75;1.75;;;;;;;;;;4977906;28;20642;-71
2023/07/09 13:46:17;;;;;;;1.60;1.60;;;;;;;;;;4978083;28;20206;-70
2023/07/09 13:48:45;;;;;;;1.63;1.63;;;;;;;;;;4977860;28;20230;-70
2023/07/09 13:51:15;;;;;;;1.42;1.33;;;;;;;;;;4977462;28;20665;-70
2023/07/09 13:53:42;;;;;;;1.90;1.65;;;;;;;;;;4977747;28;20258;-70
2023/07/09 13:56:11;;;;;;;1.50;1.40;;;;;;;;;;4977899;28;20202;-70
2023/07/09 13:58:38;;;;;;;1.50;1.50;;;;;;;;;;4977828;28;20203;-70
2023/07/09 14:01:11;;;;;;;1.65;1.65;;;;;;;;;;4977882;28;20306;-70
2023/07/09 14:03:38;;;;;;;1.48;1.48;;;;;;;;;;4977989;28;20234;-70
2023/07/09 14:06:05;;;;;;;1.73;1.63;;;;;;;;;;4977615;28;20199;-70
2023/07/09 14:08:32;;;;;;;1.90;1.80;;;;;;;;;;4977086;28;20721;-70
2023/07/09 14:10:59;;;;;;;1.98;1.88;;;;;;;;;;4977457;28;20580;-70
2023/07/09 14:13:28;;;;;;;1.80;1.70;;;;;;;;;;4977565;28;20226;-70
2023/07/09 14:15:55;;;;;;;1.67;1.58;;;;;;;;;;4978717;28;20218;-70
2023/07/09 14:18:23;;;;;;;2.13;1.60;;;;;;;;;;4977498;28;20195;-70
2023/07/09 14:20:50;;;;;;;2.05;1.95;;;;;;;;;;4977011;28;20203;-70
2023/07/09 14:23:18;;;;;;;1.92;1.83;;;;;;;;;;4977298;28;20234;-70
2023/07/09 14:25:46;;;;;;;2.08;2.00;;;;;;;;;;4977532;28;20199;-70
2023/07/09 14:28:14;;;;;;;2.10;2.00;;;;;;;;;;4977066;28;20226;-70
2023/07/09 14:30:44;;;;;;;2.20;2.10;;;;;;;;;;4977473;28;20203;-70
2023/07/09 14:33:13;;;;;;;2.38;2.28;;;;;;;;;;4977111;28;20710;-70
2023/07/09 14:35:40;;;;;;;1.98;1.88;;;;;;;;;;4977348;28;20206;-70
2023/07/09 14:38:16;;;;;;;2.20;2.10;;;;;;;;;;4977440;28;20219;-70
2023/07/09 14:40:43;;;;;;;2.25;1.90;;;;;;;;;;4976905;28;20187;-70
2023/07/09 14:43:11;;;;;;;2.40;2.30;;;;;;;;;;4976755;28;20258;-70
2023/07/09 14:45:39;;;;;;;2.08;1.98;;;;;;;;;;4977236;28;20203;-70
2023/07/09 14:48:12;;;;;;;2.33;2.22;;;;;;;;;;4977299;28;20222;-70
2023/07/09 14:50:39;;;;;;;1.70;1.70;;;;;;;;;;4977280;28;20229;-69
2023/07/09 14:53:07;;;;;;;1.70;1.70;;;;;;;;;;4977620;28;20233;-71
2023/07/09 14:55:35;;;;;;;1.95;1.95;;;;;;;;;;4976743;28;20203;-70
2023/07/09 14:58:05;;;;;;;1.60;1.60;;;;;;;;;;4959299;28;20218;-70
2023/07/09 15:00:32;;;;;;;1.67;1.67;;;;;;;;;;4976096;28;20261;-70
2023/07/09 15:02:59;;;;;;;1.77;1.67;;;;;;;;;;4976668;28;20227;-70
2023/07/09 15:05:28;;;;;;;1.67;1.58;;;;;;;;;;4976529;28;20207;-70
2023/07/09 15:07:57;;;;;;;2.50;2.30;;;;;;;;;;4976464;28;20206;-70
2023/07/09 15:10:26;;;;;;;1.95;1.80;;;;;;;;;;4976423;28;20203;-69
2023/07/09 15:12:53;;;;;;;1.90;1.80;;;;;;;;;;4976495;28;20219;-69
2023/07/09 15:15:22;;;;;;;2.08;1.98;;;;;;;;;;4976682;28;20206;-70
2023/07/09 15:17:49;;;;;;;1.48;1.45;;;;;;;;;;4976295;28;20635;-70
2023/07/09 15:20:17;;;;;;;1.95;1.95;;;;;;;;;;4976413;28;20202;-70
2023/07/09 15:22:47;;;;;;;2.30;2.00;;;;;;;;;;4976134;28;20187;-70
2023/07/09 15:25:15;;;;;;;2.28;2.17;;;;;;;;;;4976038;28;20214;-70
2023/07/09 15:27:43;;;;;;;2.65;2.00;;;;;;;;;;4976049;28;20206;-70
2023/07/09 15:30:17;;;;;;;1.80;1.70;;;;;;;;;;4976139;28;20230;-70
2023/07/09 15:32:45;;;;;;;1.80;1.70;;;;;;;;;;4976082;28;20194;-71
2023/07/09 15:35:12;;;;;;;2.20;2.10;;;;;;;;;;4976167;28;20543;-70
2023/07/09 15:37:39;;;;;;;2.13;2.03;;;;;;;;;;4976514;28;20206;-69
2023/07/09 15:40:15;;;;;;;2.60;2.40;;;;;;;;;;4976621;28;20195;-69
2023/07/09 15:42:42;;;;;;;2.00;1.90;;;;;;;;;;4976459;28;20187;-69
2023/07/09 15:45:10;;;;;;;2.10;2.00;;;;;;;;;;4976021;28;20182;-69
2023/07/09 15:47:37;;;;;;;2.40;2.25;;;;;;;;;;4975417;28;20543;-69
2023/07/09 15:50:06;;;;;;;2.40;2.22;;;;;;;;;;4975624;28;20230;-70
2023/07/09 15:52:33;;;;;;;2.00;1.90;;;;;;;;;;4974841;28;20209;-69
2023/07/09 15:55:00;;;;;;;2.00;1.90;;;;;;;;;;4975313;28;20694;-69
2023/07/09 15:57:29;;;;;;;1.58;1.58;;;;;;;;;;4975595;28;20198;-69
2023/07/09 15:59:56;;;;;;;1.73;1.63;;;;;;;;;;4975170;28;20605;-69
2023/07/09 16:02:23;;;;;;;1.83;1.73;;;;;;;;;;4975181;28;20206;-69
2023/07/09 16:04:50;;;;;;;1.80;1.70;;;;;;;;;;4975402;28;20578;-69
2023/07/09 16:07:17;;;;;;;1.95;1.85;;;;;;;;;;4975825;28;20194;-69
2023/07/09 16:09:44;;;;;;;1.58;1.52;;;;;;;;;;4974826;28;20723;-69
2023/07/09 16:12:13;;;;;;;2.08;1.98;;;;;;;;;;4975219;28;20206;-69
2023/07/09 16:14:42;;;;;;;2.08;1.98;;;;;;;;;;4974909;28;20269;-69
2023/07/09 16:17:10;;;;;;;1.95;1.83;;;;;;;;;;4975106;28;20205;-69
2023/07/09 16:19:37;;;;;;;2.00;1.90;;;;;;;;;;4975351;28;20199;-69
2023/07/09 16:22:06;;;;;;;1.98;1.83;;;;;;;;;;4975051;28;20211;-69
2023/07/09 16:24:35;;;;;;;1.80;1.70;;;;;;;;;;4974964;28;20254;-69
2023/07/09 16:27:04;;;;;;;2.10;1.88;;;;;;;;;;4974964;28;20206;-69
2023/07/09 16:29:32;;;;;;;1.35;1.35;;;;;;;;;;4974920;28;20219;-69
2023/07/09 16:32:01;;;;;;;1.35;1.35;;;;;;;;;;4974562;28;20570;-69
2023/07/09 16:34:29;;;;;;;1.25;1.25;;;;;;;;;;4974862;28;20249;-69
2023/07/09 16:36:56;;;;;;;1.60;1.50;;;;;;;;;;4975143;28;20242;-70
2023/07/09 16:39:29;;;;;;;1.40;1.40;;;;;;;;;;4974961;28;20185;-69
2023/07/09 16:41:57;;;;;;;1.58;1.38;;;;;;;;;;4974523;28;20190;-68
2023/07/09 16:44:24;;;;;;;1.38;1.38;;;;;;;;;;4974781;28;20237;-67
2023/07/09 16:46:52;;;;;;;1.70;1.60;;;;;;;;;;4974838;28;20187;-68
2023/07/09 16:49:27;;;;;;;1.63;1.52;;;;;;;;;;4974870;28;20230;-69
2023/07/09 16:51:54;;;;;;;2.08;1.98;;;;;;;;;;4975116;28;20601;-70
2023/07/09 16:54:21;;;;;;;2.08;1.98;;;;;;;;;;4974786;28;20706;-70
2023/07/09 16:56:48;;;;;;;2.33;2.13;;;;;;;;;;4975016;28;20604;-70
2023/07/09 16:59:16;;;;;;;2.05;1.95;;;;;;;;;;4974989;28;20207;-69
2023/07/09 17:01:43;;;;;;;2.15;2.05;;;;;;;;;;4974489;28;20215;-69
2023/07/09 17:04:20;;;;;;;2.88;2.60;;;;;;;;;;4977984;28;20223;-70
2023/07/09 17:06:50;;;;;;;3.45;2.35;;;;;;;;;;4978789;28;20191;-70
2023/07/09 17:09:18;;;;;;;2.58;2.10;;;;;;;;;;4978687;28;20222;-69
2023/07/09 17:11:46;;;;;;;2.20;2.10;;;;;;;;;;4978374;28;20199;-69
2023/07/09 17:14:15;;;;;;;2.22;2.13;;;;;;;;;;4978541;28;20227;-70
2023/07/09 17:16:42;;;;;;;2.60;2.33;;;;;;;;;;4979046;28;20550;-69
2023/07/09 17:19:11;;;;;;;1.60;1.60;;;;;;;;;;4980294;28;20670;-69
2023/07/09 17:21:38;;;;;;;1.95;1.95;;;;;;;;;;4982176;28;20690;-70
2023/07/09 17:24:17;;;;;;;2.05;2.00;;;;;;;;;;4978146;28;20318;-69
2023/07/09 17:26:44;;;;;;;1.90;1.80;;;;;;;;;;4978433;28;20191;-70
2023/07/09 17:29:11;;;;;;;1.65;1.60;;;;;;;;;;4978141;28;20233;-71
2023/07/09 17:31:38;;;;;;;3.08;2.13;;;;;;;;;;4978358;28;20214;-69
2023/07/09 17:34:05;;;;;;;1.80;1.70;;;;;;;;;;4978115;28;20219;-69
2023/07/09 17:36:33;;;;;;;2.50;1.90;;;;;;;;;;4978051;28;20207;-70
2023/07/09 17:39:00;;;;;;;3.47;2.00;;;;;;;;;;4977782;28;20570;-70
2023/07/09 17:41:28;;;;;;;1.70;1.60;;;;;;;;;;4978026;28;20210;-70
2023/07/09 17:43:56;;;;;;;2.40;1.75;;;;;;;;;;4977770;28;20234;-71
2023/07/09 17:46:23;;;;;;;2.58;1.70;;;;;;;;;;4977809;28;20233;-69
2023/07/09 17:48:50;;;;;;;2.08;1.83;;;;;;;;;;4977853;28;20210;-69
2023/07/09 17:51:17;;;;;;;2.08;1.58;;;;;;;;;;4977657;28;20210;-68
2023/07/09 17:53:44;;;;;;;2.13;1.85;;;;;;;;;;4977966;28;20223;-67
2023/07/09 17:56:18;;;;;;;1.70;1.70;;;;;;;;;;4977931;28;20265;-68
2023/07/09 17:58:47;;;;;;;2.10;1.90;;;;;;;;;;5000637;23;20242;-67
2023/07/09 18:01:15;;;;;;;1.83;1.73;;;;;;;;;;4977586;28;20203;-67
2023/07/09 18:03:42;;;;;;;1.90;1.80;;;;;;;;;;4977500;28;20225;-67
2023/07/09 18:06:13;;;;;;;2.25;2.15;;;;;;;;;;4977527;28;20203;-66
2023/07/09 18:08:40;;;;;;;1.75;1.65;;;;;;;;;;4977382;28;20277;-67
2023/07/09 18:11:11;;;;;;;1.52;1.52;;;;;;;;;;4977098;28;20587;-69
2023/07/09 18:13:38;;;;;;;1.90;1.80;;;;;;;;;;4977345;28;20184;-68
2023/07/09 18:16:07;;;;;;;1.85;1.75;;;;;;;;;;4976535;28;20210;-68
2023/07/09 18:18:34;;;;;;;1.70;1.67;;;;;;;;;;4977141;28;20334;-68
2023/07/09 18:21:01;;;;;;;1.98;1.88;;;;;;;;;;4977292;28;20203;-68
2023/07/09 18:23:28;;;;;;;2.00;1.90;;;;;;;;;;4977406;28;20210;-68
2023/07/09 18:25:55;;;;;;;1.77;1.73;;;;;;;;;;4977098;28;20203;-68
2023/07/09 18:28:25;;;;;;;1.73;1.63;;;;;;;;;;4976709;28;20658;-68
2023/07/09 18:30:52;;;;;;;1.50;1.50;;;;;;;;;;4976895;28;20230;-68
2023/07/09 18:33:21;;;;;;;1.48;1.48;;;;;;;;;;4976969;28;20210;-68
2023/07/09 18:35:48;;;;;;;1.75;1.67;;;;;;;;;;4976896;28;20323;-69
2023/07/09 18:38:15;;;;;;;1.98;1.88;;;;;;;;;;4976878;28;20233;-68
2023/07/09 18:40:43;;;;;;;1.88;1.77;;;;;;;;;;4976754;28;20222;-68
2023/07/09 18:43:11;;;;;;;2.15;2.05;;;;;;;;;;4976694;28;20211;-68
2023/07/09 18:45:38;;;;;;;1.50;1.50;;;;;;;;;;4976714;28;20230;-68
2023/07/09 18:48:10;;;;;;;1.83;1.73;;;;;;;;;;4976557;28;20670;-68
2023/07/09 18:50:38;;;;;;;2.03;1.92;;;;;;;;;;4976805;28;20222;-68
2023/07/09 18:53:05;;;;;;;2.10;2.00;;;;;;;;;;4976753;28;20204;-68
2023/07/09 18:55:32;;;;;;;1.52;1.52;;;;;;;;;;4976408;28;20667;-68
2023/07/09 18:57:59;;;;;;;1.75;1.65;;;;;;;;;;4977082;28;20199;-69
2023/07/09 19:00:26;;;;;;;1.80;1.80;;;;;;;;;;4976381;28;20227;-68
2023/07/09 19:02:54;;;;;;;1.63;1.63;;;;;;;;;;4976597;28;20211;-69
2023/07/09 19:05:23;;;;;;;1.95;1.85;;;;;;;;;;4976708;28;20199;-68
2023/07/09 19:07:52;;;;;;;1.90;1.88;;;;;;;;;;4976595;28;20199;-68
2023/07/09 19:10:20;;;;;;;1.73;1.73;;;;;;;;;;4976003;28;20591;-74
2023/07/09 19:12:48;;;;;;;1.88;1.85;;;;;;;;;;4976235;28;20207;-70
2023/07/09 19:15:16;;;;;;;2.08;1.98;;;;;;;;;;4976103;28;20207;-69
2023/07/09 19:17:43;;;;;;;2.08;1.98;;;;;;;;;;4976254;28;20236;-69
2023/07/09 19:20:20;;;;;;;1.77;1.67;;;;;;;;;;4976120;28;20230;-69
2023/07/09 19:22:48;;;;;;;1.85;1.77;;;;;;;;;;4975799;28;20565;-69
2023/07/09 19:25:17;;;;;;;1.50;1.50;;;;;;;;;;4976338;28;20209;-69
2023/07/09 19:27:45;;;;;;;1.88;1.85;;;;;;;;;;4976007;28;20202;-68
2023/07/09 19:30:12;;;;;;;1.92;1.83;;;;;;;;;;4975913;28;20234;-69
2023/07/09 19:32:40;;;;;;;2.33;2.22;;;;;;;;;;4976068;28;20207;-71
2023/07/09 19:35:11;;;;;;;1.95;1.85;;;;;;;;;;4975937;28;20198;-69
2023/07/09 19:37:38;;;;;;;2.22;2.13;;;;;;;;;;4975792;28;20242;-68
2023/07/09 19:40:15;;;;;;;2.20;2.10;;;;;;;;;;4975722;28;20307;-68
2023/07/09 19:42:44;;;;;;;2.17;2.08;;;;;;;;;;4975804;28;20198;-68
2023/07/09 19:45:12;;;;;;;2.17;2.08;;;;;;;;;;4975745;28;20206;-68
2023/07/09 19:47:39;;;;;;;2.20;2.10;;;;;;;;;;4975391;28;20210;-68
2023/07/09 19:50:12;;;;;;;1.70;1.70;;;;;;;;;;4975508;28;20223;-69
2023/07/09 19:52:39;;;;;;;1.90;1.80;;;;;;;;;;4975521;28;20556;-68
2023/07/09 19:55:13;;;;;;;1.63;1.58;;;;;;;;;;4975852;28;20203;-69
2023/07/09 19:57:40;;;;;;;1.60;1.60;;;;;;;;;;4975452;28;20191;-68
2023/07/09 20:00:09;;;;;;;1.83;1.73;;;;;;;;;;4975234;28;20235;-68
2023/07/09 20:02:36;;;;;;;1.77;1.77;;;;;;;;;;4975390;28;20202;-67
2023/07/09 20:05:04;;;;;;;1.98;1.88;;;;;;;;;;4975472;28;20206;-68
2023/07/09 20:07:31;;;;;;;2.10;2.00;;;;;;;;;;4975088;28;20666;-66
2023/07/09 20:09:58;;;;;;;1.90;1.80;;;;;;;;;;4975109;28;20566;-65
2023/07/09 20:12:26;;;;;;;2.30;2.20;;;;;;;;;;4975508;28;20203;-65
2023/07/09 20:14:53;;;;;;;1.92;1.83;;;;;;;;;;4980529;28;20229;-66
2023/07/09 20:17:22;;;;;;;2.13;2.03;;;;;;;;;;4989637;28;20203;-66
2023/07/09 20:19:49;;;;;;;1.92;1.85;;;;;;;;;;4989424;28;20222;-66
2023/07/09 20:22:17;;;;;;;2.20;2.10;;;;;;;;;;4986357;28;20214;-66
2023/07/09 20:24:44;;;;;;;2.20;2.10;;;;;;;;;;4975015;28;20202;-66
2023/07/09 20:27:12;;;;;;;2.00;1.90;;;;;;;;;;4974995;28;20203;-66
2023/07/09 20:29:39;;;;;;;1.90;1.80;;;;;;;;;;4974798;28;20249;-67
2023/07/09 20:32:10;;;;;;;1.90;1.80;;;;;;;;;;4974942;28;20206;-67
2023/07/09 20:34:39;;;;;;;1.90;1.80;;;;;;;;;;4974900;28;20183;-67
2023/07/09 20:37:09;;;;;;;2.10;2.05;;;;;;;;;;4974770;28;20214;-67
2023/07/09 20:39:36;;;;;;;1.95;1.85;;;;;;;;;;4974935;28;20261;-66
2023/07/09 20:42:04;;;;;;;1.63;1.60;;;;;;;;;;4974788;28;20233;-66
2023/07/09 20:44:33;;;;;;;2.10;2.00;;;;;;;;;;4975486;28;20210;-66
2023/07/09 20:47:01;;;;;;;2.15;2.05;;;;;;;;;;4974865;28;20191;-67
2023/07/09 20:49:30;;;;;;;2.03;1.92;;;;;;;;;;4974534;28;20227;-67
2023/07/09 20:51:59;;;;;;;2.00;1.90;;;;;;;;;;4975189;28;20222;-67